LEPA Airport Information

Runway Information
Runway 06R Length 9842 ft width 148 ft Elevation 24 ft Threshold 1345 ft Heading 59
Runway 24L Length 9842 ft Width 148 ft Elevation 8 ft Threshold N/A Heading 239
Runway 06L Length 10728 ft width 148 ft Elevation 15 ft Threshold N/A Heading 59
Runway 24R Length 10728 ft Width 148 ft Elevation 8 ft Threshold 230 ft Heading 239
Airport Frequencies
Type APP Name APP Frequency 118.95 MHZ
Type ATIS Name ATIS Frequency 119.25 MHZ
Type CLD Name CLNC DEL Frequency 121.6 MHZ
Type GND Name GND Frequency 121.7 MHZ
Type OPS Name OPS Frequency 130.25 MHZ
Type TWR Name TWR Frequency 118.3 MHZ
Airport Navaids
Airport Weather Information & NOTAM
ADDS - METARS form results

(1607 UTC 22 March 2023)
Data provider http://aviationweather.gov/metar/data/
 
METAR text: LEPA 221600Z 22010KT 190V250 9999 FEW020 17/13 Q1016 NOSIG
Conditions at: LEPA (PALMA DE MALLORC, ES) observed 1600 UTC 22 March 2023
Temperature: 17.0°C (63°F)
Dewpoint: 13.0°C (55°F) [RH = 77%]
Pressure (altimeter): 30.00 inches Hg (1016.0 mb)
Winds: from the SW (220 degrees) at 12 MPH (10 knots; 5.1 m/s)
Visibility: 6 or more miles (10+ km)
Ceiling: at least 12,000 feet AGL
Clouds: few clouds at 2000 feet AGL
Weather: no significant weather observed at this time

METAR text: LEPA 221530Z 23011KT 9999 FEW020 17/12 Q1017 NOSIG
Conditions at: LEPA (PALMA DE MALLORC, ES) observed 1530 UTC 22 March 2023
Temperature: 17.0°C (63°F)
Dewpoint: 12.0°C (54°F) [RH = 72%]
Pressure (altimeter): 30.03 inches Hg (1017.0 mb)
Winds: from the SW (230 degrees) at 13 MPH (11 knots; 5.7 m/s)
Visibility: 6 or more miles (10+ km)
Ceiling: at least 12,000 feet AGL
Clouds: few clouds at 2000 feet AGL
Weather: no significant weather observed at this time

Forecast for: LEPA (PALMA DE MALLORC, ES)
Text: TAF LEPA 221100Z 2212/2312 22007KT 9999 FEW020 TX18/2213Z TN08/2306Z
Forecast period: 1200 UTC 22 March 2023 to 1200 UTC 23 March 2023
Forecast type: FROM: standard forecast or significant change
Winds: from the SW (220 degrees) at 8 MPH (7 knots; 3.6 m/s)
Visibility: 6 or more miles (10+ km)
Ceiling: at least 12,000 feet AGL
Clouds: few clouds at 2000 feet AGL
Weather: no significant weather forecast for this period
Text: TEMPO 2303/2308 09004KT
Forecast period: 0300 to 0800 UTC 23 March 2023
Forecast type: TEMPORARY: The following changes expected for less than half the time period
Winds: from the E (90 degrees) at 5 MPH (4 knots; 2.1 m/s)
Visibility: missing
Ceiling: unknown
Clouds: missing
Weather: no significant weather forecast for this period
Text: PROB30
Forecast period: 2100 UTC 22 March 2023 to 0600 UTC 23 March 2023
Forecast type: TEMPORARY: The following changes expected for less than half the time period
Visibility: missing
Ceiling: 1000 feet AGL
Clouds: broken clouds at 1000 feet AGL
Weather: no significant weather forecast for this period